CheckWX is a tool to help pilots better visualize weather data.  It is not intended as a substitute for an official pre-flight weather briefing.

05:26:17 UTC

KMLT METAR
Millinocket Municipal Airport
Millinocket, Maine, USA
Current

33 mins ago

KMLT 280453Z AUTO 27004KT 10SM BKN080 M05/M09 A2936 RMK AO2 SLP951 T10501094 400221050
Observed
Feb-28 @ 04:53 UTC
Wind
  • 270° at 4 KTS
Visibility
10 SM
Flight Rules
VFR
Cloud Levels
  • Broken at 8,000' AGL
Temperature
-5°C / 23°F
Dewpoint
-9°C / 16°F
Humidity
74%
Altimeter
29.36" Hg
Pressure
994.22 hPa
Previous

2 hours ago

KMLT 280353Z AUTO 28009KT 10SM SCT100 M04/M09 A2933 RMK AO2 SLP943 T10441089
Observed
Feb-28 @ 03:53 UTC
Wind
  • 280° at 9 KTS
Visibility
10 SM
Flight Rules
VFR
Cloud Levels
  • Scattered at 10,000' AGL
Temperature
-4°C / 25°F
Dewpoint
-9°C / 16°F
Humidity
69%
Altimeter
29.33" Hg
Pressure
993.22 hPa
Previous

3 hours ago

KMLT 280253Z AUTO 28015G27KT 4SM HZ CLR M03/M08 A2929 RMK AO2 PK WND 31030/0212 UPB39E44SNE32 PRESRR SLP929 P0000 60007 T10331083 53048
Observed
Feb-28 @ 02:53 UTC
Wind
  • 280° at 15 KTS
  • Gusting to 27 KTS
Visibility
4 SM
Flight Rules
MVFR
Conditions
Haze
Cloud Levels
  • Clear skies
Temperature
-3°C / 27°F
Dewpoint
-8°C / 18°F
Humidity
69%
Altimeter
29.29" Hg
Pressure
991.92 hPa
Current Rain
0.01"